createdAt,value
2018-05-31T00:00:05.919Z,99.99
2018-05-31T00:01:05.913Z,99.99
2018-05-31T00:02:05.917Z,99.99
2018-05-31T00:03:05.881Z,99.99
2018-05-31T00:04:05.877Z,99.99
2018-05-31T00:05:05.857Z,99.99
2018-05-31T00:06:05.845Z,99.99
2018-05-31T00:07:05.840Z,99.99
2018-05-31T00:08:05.830Z,99.99
2018-05-31T00:09:05.809Z,99.99
2018-05-31T00:10:05.797Z,99.99
2018-05-31T00:11:05.784Z,99.99
2018-05-31T00:12:05.771Z,99.99
2018-05-31T00:13:05.762Z,99.99
2018-05-31T00:14:05.749Z,99.99
2018-05-31T00:15:05.736Z,99.99
2018-05-31T00:16:05.727Z,99.99
2018-05-31T00:17:05.717Z,99.99
2018-05-31T00:18:05.698Z,99.99
2018-05-31T00:19:05.688Z,99.99
2018-05-31T00:20:05.675Z,99.99
2018-05-31T00:21:05.666Z,99.99
2018-05-31T00:22:05.656Z,99.99
2018-05-31T00:23:05.643Z,99.99
2018-05-31T00:24:05.626Z,99.99
2018-05-31T00:25:05.638Z,99.99
2018-05-31T00:26:05.608Z,99.99
2018-05-31T00:27:05.586Z,99.99
2018-05-31T00:28:05.589Z,99.99
2018-05-31T00:29:05.560Z,99.99
2018-05-31T00:30:05.551Z,99.99
2018-05-31T00:31:05.541Z,99.99
2018-05-31T00:32:05.525Z,99.99
2018-05-31T00:33:05.525Z,99.99
2018-05-31T00:34:05.506Z,99.99
2018-05-31T00:35:05.491Z,99.99
2018-05-31T00:36:05.483Z,99.99
2018-05-31T00:37:05.483Z,99.99
2018-05-31T00:38:05.455Z,99.99
2018-05-31T00:39:05.445Z,99.99
2018-05-31T00:40:05.422Z,99.99
2018-05-31T00:41:05.427Z,99.99
2018-05-31T00:42:05.397Z,99.99
2018-05-31T00:43:05.395Z,99.99
2018-05-31T00:44:05.390Z,99.99
2018-05-31T00:45:05.358Z,99.99
2018-05-31T00:46:05.349Z,99.99
2018-05-31T00:47:05.345Z,99.99
2018-05-31T00:48:05.341Z,99.99
2018-05-31T00:49:05.313Z,99.99
2018-05-31T00:50:05.304Z,99.99
2018-05-31T00:51:05.291Z,99.99
2018-05-31T00:52:05.285Z,99.99
2018-05-31T00:53:05.263Z,99.99
2018-05-31T00:54:05.267Z,99.99
2018-05-31T00:55:05.238Z,99.99
2018-05-31T00:56:05.225Z,99.99
2018-05-31T00:57:05.218Z,99.99
2018-05-31T00:58:05.207Z,99.99
2018-05-31T00:59:05.194Z,99.99
2018-05-31T01:00:05.210Z,99.99
2018-05-31T01:01:05.177Z,99.99
2018-05-31T01:02:05.167Z,99.99
2018-05-31T01:03:05.132Z,99.99
2018-05-31T01:04:05.127Z,99.99
2018-05-31T01:05:05.112Z,99.99
2018-05-31T01:06:05.104Z,99.99
2018-05-31T01:07:05.091Z,99.99
2018-05-31T01:08:05.085Z,99.99
2018-05-31T01:09:05.063Z,99.99
2018-05-31T01:10:05.050Z,99.99
2018-05-31T01:11:05.041Z,99.99
2018-05-31T01:12:05.034Z,99.99
2018-05-31T01:13:05.019Z,99.99
2018-05-31T01:14:04.999Z,99.99
2018-05-31T01:15:05.009Z,99.99
2018-05-31T01:16:04.974Z,99.99
2018-05-31T01:17:04.960Z,99.99
2018-05-31T01:18:04.960Z,99.99
2018-05-31T01:19:04.943Z,99.99
2018-05-31T01:20:04.923Z,99.99
2018-05-31T01:21:04.910Z,99.99
2018-05-31T01:22:04.891Z,99.99
2018-05-31T01:23:04.890Z,99.99
2018-05-31T01:24:04.876Z,99.99
2018-05-31T01:25:04.864Z,99.99
2018-05-31T01:26:04.847Z,99.99
2018-05-31T01:27:04.832Z,99.99
2018-05-31T01:28:04.822Z,99.99
2018-05-31T01:29:04.803Z,99.99
2018-05-31T01:30:04.793Z,99.99
2018-05-31T01:31:04.787Z,99.99
2018-05-31T01:32:04.829Z,99.99
2018-05-31T01:33:04.759Z,99.99
2018-05-31T01:34:04.752Z,99.99
2018-05-31T01:35:04.739Z,99.99
2018-05-31T01:36:04.719Z,99.99
2018-05-31T01:37:04.710Z,99.99
2018-05-31T01:38:04.698Z,99.99
2018-05-31T01:39:04.679Z,99.99
2018-05-31T01:40:04.669Z,99.99
2018-05-31T01:41:04.654Z,99.99
2018-05-31T01:42:04.647Z,99.99
2018-05-31T01:43:04.631Z,99.99
2018-05-31T01:44:04.637Z,99.99
2018-05-31T01:45:04.609Z,99.99
2018-05-31T01:46:04.599Z,99.99
2018-05-31T01:47:04.583Z,99.99
2018-05-31T01:48:04.577Z,99.99
2018-05-31T01:49:04.558Z,99.99
2018-05-31T01:50:04.538Z,99.99
2018-05-31T01:51:04.550Z,99.99
2018-05-31T01:52:04.519Z,99.99
2018-05-31T01:53:04.506Z,99.99
2018-05-31T01:54:04.496Z,99.99
2018-05-31T01:55:04.493Z,99.99
2018-05-31T01:56:04.467Z,99.99
2018-05-31T01:57:04.456Z,99.99
2018-05-31T01:58:04.442Z,99.99
2018-05-31T01:59:04.431Z,99.99
2018-05-31T02:00:04.419Z,99.99
2018-05-31T02:01:04.409Z,99.99
2018-05-31T02:02:04.394Z,99.99
2018-05-31T02:03:04.391Z,99.99
2018-05-31T02:04:04.371Z,99.99
2018-05-31T02:05:04.366Z,99.99
2018-05-31T02:06:04.350Z,99.99
2018-05-31T02:07:04.333Z,99.99
2018-05-31T02:08:04.326Z,99.99
2018-05-31T02:09:04.311Z,99.99
2018-05-31T02:10:04.314Z,99.99
2018-05-31T02:11:04.285Z,99.99
2018-05-31T02:12:04.274Z,99.99
2018-05-31T02:13:04.265Z,99.99
2018-05-31T02:14:04.249Z,99.99
2018-05-31T02:15:04.246Z,99.99
2018-05-31T02:16:04.230Z,99.99
2018-05-31T02:17:04.228Z,99.99
2018-05-31T02:18:04.207Z,99.99
2018-05-31T02:19:04.187Z,99.99
2018-05-31T02:20:04.194Z,99.99
2018-05-31T02:21:04.165Z,99.99
2018-05-31T02:22:04.149Z,99.99
2018-05-31T02:23:04.162Z,99.99
2018-05-31T02:24:04.126Z,99.99
2018-05-31T02:25:04.117Z,99.99
2018-05-31T02:26:04.101Z,99.99
2018-05-31T02:27:04.094Z,99.99
2018-05-31T02:28:04.085Z,99.99
2018-05-31T02:29:04.066Z,99.99
2018-05-31T02:30:04.053Z,99.99
2018-05-31T02:31:04.047Z,99.99
2018-05-31T02:32:04.031Z,99.99
2018-05-31T02:33:04.017Z,99.99
2018-05-31T02:34:04.005Z,99.99
2018-05-31T02:35:03.992Z,99.99
2018-05-31T02:36:03.985Z,99.99
2018-05-31T02:37:03.966Z,99.99
2018-05-31T02:38:03.963Z,99.99
2018-05-31T02:39:03.947Z,99.99
2018-05-31T02:40:03.935Z,99.99
2018-05-31T02:41:03.919Z,99.99
2018-05-31T02:42:03.912Z,99.99
2018-05-31T02:43:03.899Z,99.99
2018-05-31T02:44:03.893Z,99.99
2018-05-31T02:45:03.883Z,99.99
2018-05-31T02:46:03.867Z,99.99
2018-05-31T02:47:03.851Z,99.99
2018-05-31T02:48:03.836Z,99.99
2018-05-31T02:49:03.839Z,99.99
2018-05-31T02:50:03.816Z,99.99
2018-05-31T02:51:03.803Z,99.99
2018-05-31T02:52:03.795Z,99.99
2018-05-31T02:53:03.777Z,99.99
2018-05-31T02:54:03.764Z,99.99
2018-05-31T02:55:03.755Z,99.99
2018-05-31T02:56:03.746Z,99.99
2018-05-31T02:57:03.726Z,99.99
2018-05-31T02:58:03.713Z,99.99
2018-05-31T02:59:03.707Z,99.99
2018-05-31T03:00:03.691Z,99.99
2018-05-31T03:01:03.676Z,99.99
2018-05-31T03:02:03.668Z,99.99
2018-05-31T03:03:03.661Z,99.99
2018-05-31T03:04:03.643Z,99.99
2018-05-31T03:05:03.628Z,99.99
2018-05-31T03:06:03.620Z,99.99
2018-05-31T03:07:03.613Z,99.99
2018-05-31T03:08:03.595Z,99.99
2018-05-31T03:09:03.578Z,99.99
2018-05-31T03:10:03.601Z,99.99
2018-05-31T03:11:03.553Z,99.99
2018-05-31T03:12:03.543Z,99.99
2018-05-31T03:13:03.552Z,99.99
2018-05-31T03:14:03.518Z,99.99
2018-05-31T03:15:03.504Z,99.99
2018-05-31T03:16:03.495Z,99.99
2018-05-31T03:17:03.478Z,99.99
2018-05-31T03:18:03.468Z,99.99
2018-05-31T03:19:03.458Z,99.99
2018-05-31T03:20:03.443Z,99.99
2018-05-31T03:21:03.445Z,99.99
2018-05-31T03:22:03.414Z,99.99
2018-05-31T03:23:03.400Z,99.99
2018-05-31T03:24:03.397Z,99.99
2018-05-31T03:25:03.381Z,99.99
2018-05-31T03:26:03.369Z,99.99
2018-05-31T03:27:03.351Z,99.99
2018-05-31T03:28:03.340Z,99.99
2018-05-31T03:29:03.330Z,99.99
2018-05-31T03:30:03.318Z,99.99
2018-05-31T03:31:03.305Z,99.99
2018-05-31T03:32:03.295Z,99.99
2018-05-31T03:33:03.276Z,99.99
2018-05-31T03:34:03.267Z,99.99
2018-05-31T03:35:03.258Z,99.99
2018-05-31T03:36:03.242Z,99.99
2018-05-31T03:37:03.225Z,99.99
2018-05-31T03:38:03.212Z,99.99
2018-05-31T03:39:03.201Z,99.99
2018-05-31T03:40:03.203Z,99.99
2018-05-31T03:41:03.177Z,99.99
2018-05-31T03:42:03.187Z,99.99
2018-05-31T03:43:03.152Z,99.99
2018-05-31T03:44:03.136Z,99.99
2018-05-31T03:45:03.130Z,99.99
2018-05-31T03:46:03.116Z,99.99
2018-05-31T03:47:03.102Z,99.99
2018-05-31T03:48:03.087Z,99.99
2018-05-31T03:49:03.072Z,99.99
2018-05-31T03:50:03.067Z,99.99
2018-05-31T03:51:03.050Z,99.99
2018-05-31T03:52:03.044Z,99.99
2018-05-31T03:53:03.018Z,99.99
2018-05-31T03:54:03.009Z,99.99
2018-05-31T03:55:02.999Z,99.99
2018-05-31T03:56:02.985Z,99.99
2018-05-31T03:57:02.973Z,99.99
2018-05-31T03:58:02.960Z,99.99
2018-05-31T03:59:02.951Z,99.99
2018-05-31T04:00:02.941Z,99.99
2018-05-31T04:01:02.923Z,99.99
2018-05-31T04:02:02.915Z,99.99
2018-05-31T04:03:02.899Z,99.99
2018-05-31T04:04:02.887Z,99.99
2018-05-31T04:05:02.868Z,99.99
2018-05-31T04:06:02.858Z,99.99
2018-05-31T04:07:02.849Z,99.99
2018-05-31T04:08:02.839Z,99.99
2018-05-31T04:09:02.827Z,99.99
2018-05-31T04:10:02.813Z,99.99
2018-05-31T04:11:02.795Z,99.99
2018-05-31T04:12:02.782Z,99.99
2018-05-31T04:13:02.799Z,99.99
2018-05-31T04:14:02.758Z,99.99
2018-05-31T04:15:02.747Z,99.99
2018-05-31T04:16:02.737Z,99.99
2018-05-31T04:17:02.718Z,99.99
2018-05-31T04:18:02.714Z,99.99
2018-05-31T04:19:02.698Z,99.99
2018-05-31T04:20:02.683Z,99.99
2018-05-31T04:21:02.677Z,99.99
2018-05-31T04:22:02.660Z,99.99
2018-05-31T04:23:02.652Z,99.99
2018-05-31T04:24:02.642Z,99.99
2018-05-31T04:25:02.626Z,99.99
2018-05-31T04:26:02.616Z,99.99
2018-05-31T04:27:02.599Z,99.99
2018-05-31T04:28:02.581Z,99.99
2018-05-31T04:29:02.568Z,99.99
2018-05-31T04:30:02.561Z,99.99
2018-05-31T04:31:02.545Z,99.99
2018-05-31T04:32:02.539Z,99.99
2018-05-31T04:33:02.520Z,99.99
2018-05-31T04:34:02.511Z,99.99
2018-05-31T04:35:02.499Z,99.99
2018-05-31T04:36:02.498Z,99.99
2018-05-31T04:37:02.474Z,99.99
2018-05-31T04:38:02.461Z,99.99
2018-05-31T04:39:02.450Z,99.99
2018-05-31T04:40:02.439Z,99.99
2018-05-31T04:41:02.420Z,99.99
2018-05-31T04:42:02.413Z,99.99
2018-05-31T04:43:02.394Z,99.99
2018-05-31T04:44:02.400Z,99.99
2018-05-31T04:45:02.378Z,99.99
2018-05-31T04:46:02.365Z,99.99
2018-05-31T04:47:02.350Z,99.99
2018-05-31T04:48:02.337Z,99.99
2018-05-31T04:49:02.326Z,99.99
2018-05-31T04:50:02.308Z,99.99
2018-05-31T04:51:02.302Z,99.99
2018-05-31T04:52:02.286Z,99.99
2018-05-31T04:53:02.280Z,99.99
2018-05-31T04:54:02.286Z,99.99
2018-05-31T04:55:02.248Z,99.99
2018-05-31T04:56:02.241Z,99.99
2018-05-31T04:57:02.227Z,99.99
2018-05-31T04:58:02.215Z,99.99
2018-05-31T04:59:02.206Z,99.99
2018-05-31T05:00:02.198Z,99.99
2018-05-31T05:01:02.174Z,99.99
2018-05-31T05:02:02.167Z,99.99
2018-05-31T05:03:02.198Z,99.99
2018-05-31T05:04:02.164Z,99.99
2018-05-31T05:05:02.136Z,99.99
2018-05-31T05:06:02.113Z,99.99
2018-05-31T05:07:02.101Z,99.99
2018-05-31T05:08:02.091Z,99.99
2018-05-31T05:09:02.077Z,99.99
2018-05-31T05:10:02.070Z,99.99
2018-05-31T05:11:02.058Z,99.99
2018-05-31T05:12:02.042Z,99.99
2018-05-31T05:13:02.030Z,99.99
2018-05-31T05:14:02.026Z,99.99
2018-05-31T05:15:02.008Z,99.99
2018-05-31T05:16:01.994Z,99.99
2018-05-31T05:17:01.984Z,99.99
2018-05-31T05:18:01.980Z,99.99
2018-05-31T05:19:01.959Z,99.99
2018-05-31T05:20:01.956Z,99.99
2018-05-31T05:21:01.934Z,99.99
2018-05-31T05:22:01.924Z,99.99
2018-05-31T05:23:01.914Z,99.99
2018-05-31T05:24:01.921Z,99.99
2018-05-31T05:25:01.892Z,99.99
2018-05-31T05:26:01.881Z,99.99
2018-05-31T05:27:01.862Z,99.99
2018-05-31T05:28:01.879Z,99.99
2018-05-31T05:29:01.849Z,99.99
2018-05-31T05:30:01.843Z,99.99
2018-05-31T05:31:01.828Z,99.99
2018-05-31T05:32:01.829Z,99.99
2018-05-31T05:33:01.801Z,99.99
2018-05-31T05:34:01.785Z,99.99
2018-05-31T05:35:01.773Z,99.99
2018-05-31T05:36:01.766Z,99.99
2018-05-31T05:37:01.747Z,99.99
2018-05-31T05:38:01.740Z,99.99
2018-05-31T05:39:01.736Z,99.99
2018-05-31T05:40:01.718Z,99.99
2018-05-31T05:41:01.709Z,99.99
2018-05-31T05:42:01.696Z,99.99
2018-05-31T05:43:01.689Z,99.99
2018-05-31T05:44:01.676Z,99.99
2018-05-31T05:45:01.668Z,99.99
2018-05-31T05:46:01.647Z,99.99
2018-05-31T05:47:01.648Z,99.99
2018-05-31T05:48:01.625Z,99.99
2018-05-31T05:49:01.638Z,99.99
2018-05-31T05:50:01.612Z,99.99
2018-05-31T05:51:01.600Z,99.99
2018-05-31T05:52:01.615Z,99.99
2018-05-31T05:53:01.576Z,99.99
2018-05-31T05:54:01.568Z,99.99
2018-05-31T05:55:01.549Z,99.99
2018-05-31T05:56:01.542Z,99.99
2018-05-31T05:57:01.532Z,99.99
2018-05-31T05:58:01.532Z,99.99
2018-05-31T05:59:01.507Z,99.99
2018-05-31T06:00:01.497Z,99.99
2018-05-31T06:01:01.494Z,99.99
2018-05-31T06:02:01.478Z,99.99
2018-05-31T06:03:01.466Z,99.99
2018-05-31T06:04:01.462Z,99.99
2018-05-31T06:05:01.461Z,99.99
2018-05-31T06:06:01.433Z,99.99
2018-05-31T06:07:01.443Z,99.99
2018-05-31T06:08:01.421Z,99.99
2018-05-31T06:09:01.413Z,99.99
2018-05-31T06:10:01.462Z,99.99
2018-05-31T06:11:01.391Z,99.99
2018-05-31T06:12:01.381Z,99.99
2018-05-31T06:13:01.375Z,99.99
2018-05-31T06:14:01.359Z,99.99
2018-05-31T06:15:01.350Z,99.99
2018-05-31T06:16:01.347Z,99.99
2018-05-31T06:17:01.335Z,99.99
2018-05-31T06:18:01.347Z,99.99
2018-05-31T06:19:01.322Z,99.99
2018-05-31T06:20:01.319Z,99.99
2018-05-31T06:21:01.299Z,98.78
2018-05-31T06:22:01.296Z,98.58
2018-05-31T06:23:01.286Z,96.08
2018-05-31T06:24:01.279Z,96.66
2018-05-31T06:25:01.266Z,96.75
2018-05-31T06:26:01.259Z,95.54
2018-05-31T06:27:01.244Z,96.61
2018-05-31T06:28:01.240Z,97.77
2018-05-31T06:29:01.229Z,96.46
2018-05-31T06:30:01.225Z,95.30
2018-05-31T06:31:01.220Z,95.30
2018-05-31T06:32:01.205Z,94.43
2018-05-31T06:33:01.202Z,92.79
2018-05-31T06:34:01.196Z,90.77
2018-05-31T06:35:01.187Z,93.51
2018-05-31T06:36:01.179Z,94.77
2018-05-31T06:37:01.163Z,94.62
2018-05-31T06:38:01.164Z,90.37
2018-05-31T06:39:01.161Z,88.78
2018-05-31T06:40:01.147Z,91.19
2018-05-31T06:41:01.131Z,90.77
2018-05-31T06:42:01.131Z,91.15
2018-05-31T06:43:01.153Z,93.56
2018-05-31T06:44:01.118Z,94.57
2018-05-31T06:45:01.124Z,91.87
2018-05-31T06:46:01.109Z,88.68
2018-05-31T06:47:01.093Z,88.49
2018-05-31T06:48:01.087Z,88.53
2018-05-31T06:49:01.086Z,91.43
2018-05-31T06:50:01.077Z,88.92
2018-05-31T06:51:01.062Z,88.63
2018-05-31T06:52:01.061Z,87.37
2018-05-31T06:53:01.050Z,87.08
2018-05-31T06:54:01.047Z,89.21
2018-05-31T06:55:01.040Z,89.21
2018-05-31T06:56:01.035Z,91.82
2018-05-31T06:57:01.025Z,91.43
2018-05-31T06:58:01.014Z,90.47
2018-05-31T06:59:01.012Z,89.31
2018-05-31T07:00:01.003Z,92.21
2018-05-31T07:01:00.999Z,90.47
2018-05-31T07:02:00.983Z,91.24
2018-05-31T07:03:00.980Z,91.24
2018-05-31T07:04:00.973Z,92.49
2018-05-31T07:05:00.963Z,90.95
2018-05-31T07:06:00.958Z,90.52
2018-05-31T07:07:00.948Z,91.43
2018-05-31T07:08:00.949Z,91.14
2018-05-31T07:09:00.934Z,93.27
2018-05-31T07:10:00.932Z,90.95
2018-05-31T07:11:00.919Z,89.65
2018-05-31T07:12:00.914Z,92.83
2018-05-31T07:13:00.914Z,89.94
2018-05-31T07:14:00.902Z,90.42
2018-05-31T07:15:00.893Z,91.05
2018-05-31T07:16:00.901Z,89.69
2018-05-31T07:17:00.874Z,88.73
2018-05-31T07:18:00.871Z,93.22
2018-05-31T07:19:00.862Z,94.28
2018-05-31T07:20:00.877Z,91.48
2018-05-31T07:21:00.856Z,90.51
2018-05-31T07:22:00.849Z,92.64
2018-05-31T07:23:00.839Z,92.58
2018-05-31T07:24:00.836Z,89.88
2018-05-31T07:25:00.820Z,91.42
2018-05-31T07:26:00.833Z,88.95
2018-05-31T07:27:00.818Z,91.38
2018-05-31T07:28:00.803Z,90.12
2018-05-31T07:29:00.803Z,88.18
2018-05-31T07:30:00.803Z,85.96
2018-05-31T07:31:00.791Z,87.70
2018-05-31T07:32:00.783Z,89.09
2018-05-31T07:33:00.779Z,87.54
2018-05-31T07:34:00.789Z,89.00
2018-05-31T07:35:00.760Z,85.17
2018-05-31T07:36:00.756Z,85.89
2018-05-31T07:37:00.747Z,82.92
2018-05-31T07:38:00.763Z,83.25
2018-05-31T07:39:00.747Z,79.80
2018-05-31T07:40:00.737Z,81.49
2018-05-31T07:41:00.733Z,77.99
2018-05-31T07:42:00.730Z,76.87
2018-05-31T07:43:00.725Z,75.70
2018-05-31T07:44:00.718Z,75.05
2018-05-31T07:45:00.717Z,76.10
2018-05-31T07:46:00.708Z,74.39
2018-05-31T07:47:00.711Z,72.73
2018-05-31T07:48:00.705Z,73.80
2018-05-31T07:49:00.701Z,72.44
2018-05-31T07:50:00.695Z,71.56
2018-05-31T07:51:00.692Z,73.55
2018-05-31T07:52:00.686Z,70.82
2018-05-31T07:53:00.699Z,71.64
2018-05-31T07:54:00.684Z,72.51
2018-05-31T07:55:00.689Z,72.09
2018-05-31T07:56:00.681Z,69.87
2018-05-31T07:57:00.674Z,71.59
2018-05-31T07:58:00.693Z,71.26
2018-05-31T07:59:00.667Z,72.56
2018-05-31T08:00:00.660Z,72.27
2018-05-31T08:01:00.654Z,72.31
2018-05-31T08:02:00.669Z,71.66
2018-05-31T08:03:00.654Z,70.43
2018-05-31T08:04:00.650Z,70.47
2018-05-31T08:05:00.644Z,69.29
2018-05-31T08:06:00.727Z,70.82
2018-05-31T08:07:00.644Z,71.77
2018-05-31T08:08:00.651Z,69.62
2018-05-31T08:09:00.634Z,71.57
2018-05-31T08:10:00.638Z,69.49
2018-05-31T08:11:00.635Z,67.38
2018-05-31T08:12:00.626Z,68.32
2018-05-31T08:13:00.629Z,71.92
2018-05-31T08:14:00.632Z,72.55
2018-05-31T08:15:00.620Z,68.80
2018-05-31T08:16:00.632Z,70.73
2018-05-31T08:17:00.626Z,67.44
2018-05-31T08:18:00.614Z,67.99
2018-05-31T08:19:00.626Z,69.07
2018-05-31T08:20:00.620Z,67.99
2018-05-31T08:21:00.607Z,68.80
2018-05-31T08:22:00.616Z,72.21
2018-05-31T08:23:00.604Z,72.25
2018-05-31T08:24:00.606Z,74.33
2018-05-31T08:25:00.609Z,72.38
2018-05-31T08:26:00.599Z,69.36
2018-05-31T08:27:00.597Z,72.22
2018-05-31T08:28:00.594Z,68.32
2018-05-31T08:29:00.584Z,69.36
2018-05-31T08:30:00.588Z,72.51
2018-05-31T08:31:00.603Z,72.31
2018-05-31T08:32:00.593Z,70.86
2018-05-31T08:33:00.578Z,71.54
2018-05-31T08:34:00.584Z,69.07
2018-05-31T08:35:00.577Z,72.41
2018-05-31T08:36:00.578Z,73.29
2018-05-31T08:37:00.582Z,70.60
2018-05-31T08:38:00.575Z,70.14
2018-05-31T08:39:00.590Z,69.56
2018-05-31T08:40:00.568Z,67.38
2018-05-31T08:41:00.562Z,70.98
2018-05-31T08:42:00.558Z,67.64
2018-05-31T08:43:00.562Z,68.55
2018-05-31T08:44:00.605Z,71.96
2018-05-31T08:45:00.551Z,67.71
2018-05-31T08:46:00.552Z,68.39
2018-05-31T08:47:00.558Z,68.91
2018-05-31T08:48:00.548Z,69.13
2018-05-31T08:49:00.555Z,71.44
2018-05-31T08:50:00.546Z,72.57
2018-05-31T08:51:00.631Z,73.41
2018-05-31T08:52:00.553Z,73.18
2018-05-31T08:53:00.540Z,72.11
2018-05-31T08:54:00.542Z,72.25
2018-05-31T08:55:00.537Z,74.00
2018-05-31T08:56:00.536Z,72.34
2018-05-31T08:57:00.549Z,72.21
2018-05-31T08:58:00.533Z,73.90
2018-05-31T08:59:00.526Z,72.47
2018-05-31T09:00:00.524Z,71.25
2018-05-31T09:01:00.524Z,69.10
2018-05-31T09:02:00.520Z,70.72
2018-05-31T09:03:00.521Z,72.19
2018-05-31T09:04:00.514Z,70.53
2018-05-31T09:05:00.507Z,71.01
2018-05-31T09:06:00.508Z,70.53
2018-05-31T09:07:00.507Z,71.83
2018-05-31T09:08:00.508Z,72.29
2018-05-31T09:09:00.501Z,68.97
2018-05-31T09:10:00.508Z,68.23
2018-05-31T09:11:00.508Z,69.04
2018-05-31T09:12:00.501Z,71.18
2018-05-31T09:13:00.503Z,69.49
2018-05-31T09:14:00.497Z,70.07
2018-05-31T09:15:00.494Z,70.04
2018-05-31T09:16:00.494Z,73.06
2018-05-31T09:17:00.488Z,74.33
2018-05-31T09:18:00.494Z,72.28
2018-05-31T09:19:00.494Z,72.51
2018-05-31T09:20:00.501Z,73.58
2018-05-31T09:21:00.483Z,75.82
2018-05-31T09:22:00.496Z,73.78
2018-05-31T09:23:00.488Z,71.54
2018-05-31T09:24:00.482Z,71.67
2018-05-31T09:25:00.482Z,71.22
2018-05-31T09:26:00.479Z,72.49
2018-05-31T09:27:00.476Z,71.31
2018-05-31T09:28:00.473Z,72.88
2018-05-31T09:29:00.476Z,70.63
2018-05-31T09:30:00.467Z,68.65
2018-05-31T09:31:00.470Z,70.86
2018-05-31T09:32:00.467Z,71.54
2018-05-31T09:33:00.463Z,73.82
2018-05-31T09:34:00.463Z,71.47
2018-05-31T09:35:00.482Z,71.77
2018-05-31T09:36:00.470Z,69.53
2018-05-31T09:37:00.457Z,71.37
2018-05-31T09:38:00.463Z,68.97
2018-05-31T09:39:00.454Z,70.34
2018-05-31T09:40:00.460Z,72.88
2018-05-31T09:41:00.453Z,69.46
2018-05-31T09:42:00.450Z,68.42
2018-05-31T09:43:00.451Z,68.87
2018-05-31T09:44:00.450Z,72.86
2018-05-31T09:45:00.453Z,71.80
2018-05-31T09:46:00.455Z,68.80
2018-05-31T09:47:00.447Z,71.25
2018-05-31T09:48:00.444Z,70.70
2018-05-31T09:49:00.444Z,72.84
2018-05-31T09:50:00.449Z,71.70
2018-05-31T09:51:00.447Z,69.56
2018-05-31T09:52:00.444Z,69.04
2018-05-31T09:53:00.438Z,71.02
2018-05-31T09:54:00.448Z,71.35
2018-05-31T09:55:00.479Z,69.49
2018-05-31T09:56:00.431Z,69.01
2018-05-31T09:57:00.438Z,67.54
2018-05-31T09:58:00.452Z,68.71
2018-05-31T09:59:00.433Z,68.13
2018-05-31T10:00:00.434Z,69.89
2018-05-31T10:01:00.432Z,71.74
2018-05-31T10:02:00.433Z,69.46
2018-05-31T10:03:00.434Z,67.96
2018-05-31T10:04:00.431Z,68.65
2018-05-31T10:05:00.428Z,66.99
2018-05-31T10:06:00.425Z,68.03
2018-05-31T10:07:00.425Z,68.65
2018-05-31T10:08:00.431Z,68.19
2018-05-31T10:09:00.431Z,68.42
2018-05-31T10:10:00.423Z,68.26
2018-05-31T10:11:00.425Z,68.98
2018-05-31T10:12:00.426Z,71.36
2018-05-31T10:13:00.419Z,68.52
2018-05-31T10:14:00.413Z,63.47
2018-05-31T10:15:00.422Z,64.84
2018-05-31T10:16:00.425Z,64.35
2018-05-31T10:17:00.415Z,67.12
2018-05-31T10:18:00.416Z,62.92
2018-05-31T10:19:00.421Z,64.19
2018-05-31T10:20:00.419Z,64.55
2018-05-31T10:21:00.425Z,63.31
2018-05-31T10:22:00.420Z,67.51
2018-05-31T10:23:00.444Z,67.51
2018-05-31T10:24:00.418Z,65.78
2018-05-31T10:25:00.422Z,64.51
2018-05-31T10:26:00.425Z,63.57
2018-05-31T10:27:00.425Z,64.25
2018-05-31T10:28:00.425Z,63.73
2018-05-31T10:29:00.425Z,60.57
2018-05-31T10:30:00.435Z,63.18
2018-05-31T10:31:00.435Z,65.20
2018-05-31T10:32:00.444Z,66.08
2018-05-31T10:33:00.433Z,67.54
2018-05-31T10:34:00.435Z,70.66
2018-05-31T10:35:00.441Z,67.12
2018-05-31T10:36:00.438Z,66.79
2018-05-31T10:37:00.441Z,70.14
2018-05-31T10:38:00.438Z,70.18
2018-05-31T10:39:00.444Z,64.36
2018-05-31T10:40:00.437Z,62.76
2018-05-31T10:41:00.438Z,61.38
2018-05-31T10:42:00.448Z,60.16
2018-05-31T10:43:00.445Z,65.04
2018-05-31T10:44:00.448Z,61.46
2018-05-31T10:45:00.451Z,68.68
2018-05-31T10:46:00.452Z,65.14
2018-05-31T10:47:00.448Z,65.17
2018-05-31T10:48:00.448Z,67.12
2018-05-31T10:49:00.501Z,68.80
2018-05-31T10:50:00.454Z,67.35
2018-05-31T10:51:00.465Z,72.16
2018-05-31T10:52:00.454Z,63.96
2018-05-31T10:53:00.461Z,64.55
2018-05-31T10:54:00.457Z,66.89
2018-05-31T10:55:00.458Z,66.60
2018-05-31T10:56:00.464Z,67.96
2018-05-31T10:57:00.461Z,68.13
2018-05-31T10:58:00.462Z,69.23
2018-05-31T10:59:00.460Z,68.26
2018-05-31T11:00:00.464Z,68.93
2018-05-31T11:01:00.468Z,69.36
2018-05-31T11:02:00.461Z,68.29
2018-05-31T11:03:00.465Z,68.97
2018-05-31T11:04:00.464Z,67.86
2018-05-31T11:05:00.467Z,65.95
2018-05-31T11:06:00.467Z,66.37
2018-05-31T11:07:00.473Z,70.11
2018-05-31T11:08:00.464Z,64.58
2018-05-31T11:09:00.460Z,66.14
2018-05-31T11:10:00.467Z,63.21
2018-05-31T11:11:00.461Z,62.53
2018-05-31T11:12:00.470Z,62.05
2018-05-31T11:13:00.464Z,65.59
2018-05-31T11:14:00.464Z,65.17
2018-05-31T11:15:00.482Z,63.24
2018-05-31T11:16:00.471Z,65.91
2018-05-31T11:17:00.477Z,63.76
2018-05-31T11:18:00.473Z,66.01
2018-05-31T11:19:00.489Z,59.85
2018-05-31T11:20:01.089Z,63.40
2018-05-31T11:21:00.503Z,61.77
2018-05-31T11:22:00.496Z,60.00
2018-05-31T11:23:00.518Z,63.76
2018-05-31T11:24:00.502Z,62.88
2018-05-31T11:25:00.518Z,63.27
2018-05-31T11:26:00.515Z,58.93
2018-05-31T11:27:00.530Z,57.76
2018-05-31T11:28:00.534Z,60.89
2018-05-31T11:29:00.545Z,63.85
2018-05-31T11:30:00.543Z,62.58
2018-05-31T11:31:00.563Z,61.90
2018-05-31T11:32:00.562Z,57.98
2018-05-31T11:33:00.571Z,58.90
2018-05-31T11:34:00.576Z,61.57
2018-05-31T11:35:00.579Z,60.40
2018-05-31T11:36:00.585Z,58.18
2018-05-31T11:37:00.595Z,58.87
2018-05-31T11:38:00.604Z,64.03
2018-05-31T11:39:00.614Z,62.99
2018-05-31T11:40:00.611Z,64.48
2018-05-31T11:41:00.628Z,64.39
2018-05-31T11:42:00.644Z,64.36
2018-05-31T11:43:00.635Z,64.52
2018-05-31T11:44:00.638Z,66.47
2018-05-31T11:45:00.644Z,65.20
2018-05-31T11:46:00.653Z,66.47
2018-05-31T11:47:00.649Z,66.02
2018-05-31T11:48:00.651Z,65.26
2018-05-31T11:49:00.662Z,68.65
2018-05-31T11:50:00.653Z,69.53
2018-05-31T11:51:00.652Z,62.95
2018-05-31T11:52:00.662Z,66.05
2018-05-31T11:53:00.662Z,60.00
2018-05-31T11:54:00.663Z,59.39
2018-05-31T11:55:00.675Z,60.80
2018-05-31T11:56:00.675Z,62.43
2018-05-31T11:57:00.687Z,61.74
2018-05-31T11:58:00.681Z,65.75
2018-05-31T11:59:00.683Z,65.75
2018-05-31T12:00:00.684Z,61.87
2018-05-31T12:01:00.691Z,60.79
2018-05-31T12:02:00.700Z,60.82
2018-05-31T12:03:00.703Z,57.62
2018-05-31T12:04:00.697Z,60.08
2018-05-31T12:05:00.708Z,60.50
2018-05-31T12:06:00.727Z,63.51
2018-05-31T12:07:00.719Z,60.77
2018-05-31T12:08:00.729Z,62.98
2018-05-31T12:09:00.723Z,60.60
2018-05-31T12:10:00.726Z,61.35
2018-05-31T12:11:00.732Z,58.84
2018-05-31T12:12:00.736Z,60.28
2018-05-31T12:13:00.745Z,63.70
2018-05-31T12:14:00.748Z,62.60
2018-05-31T12:15:00.748Z,66.41
2018-05-31T12:16:00.755Z,66.50
2018-05-31T12:17:00.754Z,65.33
2018-05-31T12:18:00.761Z,64.75
2018-05-31T12:19:00.761Z,65.33
2018-05-31T12:20:00.765Z,63.57
2018-05-31T12:21:00.767Z,66.05
2018-05-31T12:22:00.772Z,67.12
2018-05-31T12:23:00.770Z,61.55
2018-05-31T12:24:00.780Z,63.73
2018-05-31T12:25:00.778Z,64.32
2018-05-31T12:26:00.777Z,65.39
2018-05-31T12:27:00.781Z,65.69
2018-05-31T12:28:00.780Z,63.76
2018-05-31T12:29:00.786Z,64.54
2018-05-31T12:30:00.783Z,59.75
2018-05-31T12:31:00.788Z,64.64
2018-05-31T12:32:00.796Z,64.35
2018-05-31T12:33:00.796Z,58.09
2018-05-31T12:34:00.789Z,62.76
2018-05-31T12:35:00.801Z,67.15
2018-05-31T12:36:00.806Z,66.53
2018-05-31T12:37:00.793Z,62.63
2018-05-31T12:38:00.803Z,65.07
2018-05-31T12:39:00.796Z,61.23
2018-05-31T12:40:00.799Z,61.72
2018-05-31T12:41:00.802Z,62.82
2018-05-31T12:42:00.800Z,65.66
2018-05-31T12:43:00.802Z,66.14
2018-05-31T12:44:00.800Z,64.00
2018-05-31T12:45:00.806Z,65.17
2018-05-31T12:46:00.802Z,65.07
2018-05-31T12:47:00.803Z,65.07
2018-05-31T12:48:00.799Z,64.68
2018-05-31T12:49:00.815Z,65.95
2018-05-31T12:50:00.804Z,67.44
2018-05-31T12:51:00.802Z,66.47
2018-05-31T12:52:00.805Z,62.73